General Santos, Philippines
Current Conditions -  °F | °C
As of 8:00 PM on Thursday 18 Dec 2014 (Local Time) from RPMD Reporting Station
Overcast Overcast  
Wind Chill: 79°   Ceiling: 9000
Heat Index: 82°   Visibility: 6mi
Dew Point: 73°   Wind: 5mph
Humidity: 83%   Direction: 10°N
Pressure: 29.88"   Gusts: NA
Location:  6.12°N, 125.18°E
Report Text: RPMD 181200Z 01004KT 9999 SCT016 BKN090 OVC290 26/23 Q1012 RMK A2988
Loading
Personal Weather Stations






























Interactive Weather Map New forecast layout! Learn more

10-Day Weather Forecast

Advertisements
Track Severe Weather on mobile